»·PEaware :: ASA877 KSFO-KPDX

ASA877 :: KSFO-KPDX

FLIGHT INFORMATION

Flight Status: Arrived
Operator:
Alaska Airlines
More flights by this operator :: More flights under this callsign
Pilot: Anthony T. (15846)
Aircraft: BOEING 737-800
(B738)
More flights by this aircraft type
Origin: KSFO San Francisco Intl
United States
Destination: KPDX Portland Intl
United States
More flights between these airports :: More routes between these airports
Route: +TRUKN2 GRTFL MACHU TMBRS2
File this flight plan on PilotEdge
Remarks:
Altitude:
(Current/Filed)
30,000ft
Speed:
(Current/Filed)
315kts
Departed: 12-Apr-18 03:39 PM
Arrived: 12-Apr-18 04:56 PM
Distance/Time
Traveled:
478nm/1:17
Distance/Time
To Go:
Arrived

Flight Plot

Page will automatically refresh every two minutes.


Map Options




Map Legend


Flown Route
Filed Route
Departure Airport
Arrival Airport
Navaid (VOR, NDB)
Fix

Horizontal Profiles

Position Reports

Time Latitude Longitude Heading Altitude Ground
Speed
12-Apr-18 15:16 37.617824 -122.380520 254 31ft 0kts
12-Apr-18 15:17 37.617824 -122.380520 254 31ft 0kts
12-Apr-18 15:18 37.617824 -122.380520 254 31ft 0kts
12-Apr-18 15:19 37.617824 -122.380520 254 31ft 0kts
12-Apr-18 15:20 37.617824 -122.380520 254 31ft 0kts
12-Apr-18 15:21 37.617824 -122.380520 254 31ft 0kts
12-Apr-18 15:22 37.617824 -122.380520 254 31ft 0kts
12-Apr-18 15:23 37.617824 -122.380520 254 31ft 0kts
12-Apr-18 15:24 37.617824 -122.380520 254 31ft 0kts
12-Apr-18 15:25 37.617824 -122.380520 254 31ft 0kts
12-Apr-18 15:26 37.617824 -122.380520 254 31ft 0kts
12-Apr-18 15:27 37.617824 -122.380520 254 31ft 0kts
12-Apr-18 15:28 37.617824 -122.380520 254 31ft 0kts
12-Apr-18 15:29 37.617824 -122.380520 254 31ft 0kts
12-Apr-18 15:30 37.617824 -122.380520 254 31ft 0kts
12-Apr-18 15:31 37.617827 -122.380506 252 31ft 1kts
12-Apr-18 15:32 37.618205 -122.380198 146 31ft 0kts
12-Apr-18 15:33 37.618205 -122.380198 146 31ft 0kts
12-Apr-18 15:34 37.617709 -122.379542 156 31ft 12kts
12-Apr-18 15:35 37.611726 -122.382854 206 31ft 23kts
12-Apr-18 15:36 37.610772 -122.382466 120 31ft 0kts
12-Apr-18 15:37 37.610547 -122.381325 63 31ft 10kts
12-Apr-18 15:38 37.636183 -122.362828 27 996ft 217kts
12-Apr-18 15:39 37.677703 -122.291377 49 4270ft 275kts
12-Apr-18 15:40 37.727816 -122.222678 13 7264ft 269kts
12-Apr-18 15:41 37.799485 -122.217789 356 10177ft 274kts
12-Apr-18 15:42 37.883280 -122.219079 355 13143ft 314kts
12-Apr-18 15:43 37.970560 -122.221225 354 16108ft 320kts
12-Apr-18 15:44 38.059444 -122.223581 352 19048ft 328kts
12-Apr-18 15:45 38.160030 -122.226387 353 19344ft 395kts
12-Apr-18 15:46 38.271288 -122.229320 353 19338ft 404kts
12-Apr-18 15:47 38.383005 -122.234696 350 20621ft 406kts
12-Apr-18 15:48 38.496440 -122.246407 349 22119ft 412kts
12-Apr-18 15:49 38.610642 -122.258298 349 23595ft 418kts
12-Apr-18 15:50 38.727110 -122.270456 348 25069ft 423kts
12-Apr-18 15:51 38.844350 -122.282744 348 26517ft 430kts
12-Apr-18 15:52 38.964750 -122.295438 348 27963ft 442kts
12-Apr-18 15:53 39.088751 -122.308516 348 29399ft 452kts
12-Apr-18 15:54 39.213986 -122.321769 348 30338ft 463kts
12-Apr-18 15:55 39.341693 -122.335329 348 30314ft 464kts
12-Apr-18 15:56 39.469948 -122.349001 348 30307ft 464kts
12-Apr-18 15:57 39.598073 -122.362707 348 30305ft 464kts
12-Apr-18 15:58 39.726447 -122.376510 348 30299ft 464kts
12-Apr-18 15:59 39.854906 -122.390362 348 30299ft 464kts
12-Apr-18 16:00 39.983122 -122.404236 349 30297ft 464kts
12-Apr-18 16:01 40.111297 -122.418160 349 30301ft 464kts
12-Apr-18 16:02 40.239913 -122.432183 349 30301ft 464kts
12-Apr-18 16:03 40.368297 -122.446237 349 30283ft 464kts
12-Apr-18 16:04 40.496540 -122.460333 348 30283ft 464kts
12-Apr-18 16:05 40.624754 -122.474474 349 30282ft 465kts
12-Apr-18 16:06 40.753207 -122.488700 349 30282ft 464kts
12-Apr-18 16:07 40.881270 -122.502941 348 30293ft 464kts
12-Apr-18 16:08 41.009640 -122.517278 349 30258ft 465kts
12-Apr-18 16:09 41.137390 -122.531586 349 30256ft 468kts
12-Apr-18 16:10 41.265182 -122.545953 349 30245ft 468kts
12-Apr-18 16:11 41.394379 -122.560566 349 30267ft 467kts
12-Apr-18 16:12 41.523219 -122.575064 349 30264ft 469kts
12-Apr-18 16:13 41.653420 -122.583687 351 30266ft 470kts
12-Apr-18 16:14 41.783342 -122.592218 351 30268ft 470kts
12-Apr-18 16:15 41.913637 -122.600691 351 30275ft 471kts
12-Apr-18 16:16 42.044306 -122.609278 351 30275ft 470kts
12-Apr-18 16:17 42.173975 -122.617848 351 30303ft 470kts
12-Apr-18 16:18 42.303839 -122.626490 351 30315ft 470kts
12-Apr-18 16:19 42.434029 -122.635188 351 30316ft 470kts
12-Apr-18 16:20 42.564287 -122.643942 351 30316ft 470kts
12-Apr-18 16:21 42.692602 -122.652596 350 30328ft 470kts
12-Apr-18 16:22 42.822512 -122.661393 350 30327ft 469kts
12-Apr-18 16:23 42.951905 -122.670208 350 30075ft 471kts
12-Apr-18 16:24 43.079395 -122.678873 350 28254ft 461kts
12-Apr-18 16:25 43.204610 -122.687472 350 26495ft 453kts
12-Apr-18 16:26 43.328898 -122.696046 350 25304ft 447kts
12-Apr-18 16:27 43.451764 -122.704522 350 24835ft 446kts
12-Apr-18 16:28 43.575163 -122.713045 350 24354ft 445kts
12-Apr-18 16:29 43.697091 -122.721499 350 24259ft 445kts
12-Apr-18 16:30 43.819553 -122.730029 350 24256ft 445kts
12-Apr-18 16:31 43.942506 -122.738624 350 24255ft 445kts
12-Apr-18 16:32 44.065358 -122.747248 350 24254ft 445kts
12-Apr-18 16:33 44.187329 -122.749082 356 23483ft 427kts
12-Apr-18 16:34 44.298760 -122.738473 356 21509ft 402kts
12-Apr-18 16:35 44.408349 -122.727662 356 19402ft 386kts
12-Apr-18 16:36 44.508764 -122.717729 356 16999ft 358kts
12-Apr-18 16:37 44.605744 -122.708099 356 14536ft 347kts
12-Apr-18 16:38 44.687365 -122.699885 357 12799ft 330kts
12-Apr-18 16:39 44.774365 -122.691125 357 11050ft 311kts
12-Apr-18 16:40 44.856711 -122.682849 357 11002ft 311kts
12-Apr-18 16:41 44.932735 -122.675190 357 11001ft 308kts
12-Apr-18 16:42 45.001018 -122.668289 357 10374ft 284kts
12-Apr-18 16:43 45.076303 -122.655911 14 8411ft 280kts
12-Apr-18 16:44 45.135620 -122.628055 14 6783ft 273kts
12-Apr-18 16:45 45.207211 -122.597099 14 4789ft 267kts
12-Apr-18 16:46 45.275345 -122.568800 14 3777ft 250kts
12-Apr-18 16:47 45.334694 -122.543214 14 2974ft 197kts
12-Apr-18 16:48 45.392358 -122.515939 21 2977ft 189kts
12-Apr-18 16:49 45.435913 -122.471364 33 2985ft 197kts
12-Apr-18 16:50 45.479122 -122.426043 35 2499ft 192kts
12-Apr-18 16:51 45.522400 -122.416205 295 2287ft 160kts
12-Apr-18 16:52 45.537335 -122.467346 290 1677ft 167kts
12-Apr-18 16:53 45.557721 -122.523608 295 1130ft 141kts
12-Apr-18 16:54 45.576367 -122.573551 294 220ft 143kts
12-Apr-18 16:55 45.588815 -122.604642 329 23ft 18kts
12-Apr-18 16:56 45.589451 -122.604584 33 24ft 0kts
12-Apr-18 16:57 45.589488 -122.604548 32 24ft 0kts
12-Apr-18 16:58 45.589828 -122.601851 100 25ft 18kts

Navigation Log

Ident Type
Flight plan parsing failed, navigation log unavailable